Time;durP1;ratioP1;P1;durP2;ratioP2;P2;SDS_P1;SDS_P2;PMS_P1;PMS_P2;Temp;Humidity;BMP_temperature;BMP_pressure;BME280_temperature;BME280_humidity;BME280_pressure;Samples;Min_cycle;Max_cycle;Signal;HPM_P1;HPM_P2
2023/04/21 00:01:55;;;;;;;35.90;28.90;;;;;;;6.59;100.00;101348.47;5064439;28;20025;-75
2023/04/21 00:04:20;;;;;;;36.35;29.50;;;;;;;6.57;100.00;101352.81;5061245;28;20108;-72
2023/04/21 00:06:46;;;;;;;36.03;27.92;;;;;;;6.52;100.00;101346.50;5063847;28;20237;-75
2023/04/21 00:09:11;;;;;;;35.60;28.27;;;;;;;6.54;100.00;101346.56;5060727;28;20039;-72
2023/04/21 00:11:37;;;;;;;36.40;29.05;;;;;;;6.49;100.00;101338.53;5061425;28;20036;-75
2023/04/21 00:14:02;;;;;;;36.65;29.63;;;;;;;6.41;100.00;101340.97;5063378;28;20375;-73
2023/04/21 00:16:27;;;;;;;37.15;29.25;;;;;;;6.41;100.00;101332.19;5060833;28;20407;-76
2023/04/21 00:18:53;;;;;;;38.00;29.73;;;;;;;6.42;100.00;101331.34;5064472;28;20033;-75
2023/04/21 00:21:18;;;;;;;38.60;30.42;;;;;;;6.41;100.00;101329.56;5061003;28;20052;-73
2023/04/21 00:23:46;;;;;;;38.38;30.52;;;;;;;6.39;100.00;101326.00;5063584;28;20025;-75
2023/04/21 00:26:11;;;;;;;37.13;29.70;;;;;;;6.40;100.00;101328.66;5062371;28;20384;-76
2023/04/21 00:28:37;;;;;;;38.92;31.20;;;;;;;6.37;100.00;101325.06;5061183;28;20067;-73
2023/04/21 00:31:02;;;;;;;39.42;31.75;;;;;;;6.35;100.00;101321.50;5063444;28;20063;-75
2023/04/21 00:33:27;;;;;;;38.42;30.95;;;;;;;6.33;100.00;101315.31;5061188;28;20029;-72
2023/04/21 00:35:53;;;;;;;40.47;32.20;;;;;;;6.34;100.00;101312.72;5064267;28;20117;-72
2023/04/21 00:38:19;;;;;;;38.92;31.48;;;;;;;6.36;100.00;101320.66;5061147;28;20029;-75
2023/04/21 00:40:44;;;;;;;40.25;31.65;;;;;;;6.27;100.00;101318.66;5063501;28;20117;-75
2023/04/21 00:43:09;;;;;;;40.38;32.75;;;;;;;6.27;100.00;101311.66;5062124;28;20035;-71
2023/04/21 00:45:35;;;;;;;40.10;32.05;;;;;;;6.29;100.00;101303.81;5062176;28;20021;-72
2023/04/21 00:48:00;;;;;;;40.08;31.77;;;;;;;6.30;100.00;101300.34;5062311;28;20028;-71
2023/04/21 00:50:26;;;;;;;40.15;31.95;;;;;;;6.25;100.00;101309.84;5060683;28;20033;-72
2023/04/21 00:52:51;;;;;;;39.92;31.88;;;;;;;6.24;100.00;101321.19;5064857;28;20025;-75
2023/04/21 00:55:16;;;;;;;39.42;31.33;;;;;;;6.21;100.00;101326.34;5065133;28;20029;-72
2023/04/21 00:57:42;;;;;;;41.35;32.50;;;;;;;6.19;100.00;101307.94;5066811;28;20502;-74
2023/04/21 01:00:09;;;;;;;40.67;32.03;;;;;;;6.17;100.00;101308.72;5066451;28;20024;-72
2023/04/21 01:02:36;;;;;;;40.92;32.13;;;;;;;6.15;100.00;101316.56;5065873;28;20033;-75
2023/04/21 01:05:07;;;;;;;40.22;31.65;;;;;;;6.16;100.00;101317.44;5066818;28;20043;-72
2023/04/21 01:07:33;;;;;;;41.15;31.75;;;;;;;6.13;100.00;101312.09;5065856;28;20029;-72
2023/04/21 01:09:59;;;;;;;40.17;32.15;;;;;;;6.15;100.00;101311.31;5066021;28;20032;-74
2023/04/21 01:12:24;;;;;;;40.13;31.52;;;;;;;6.18;100.00;101300.88;5064505;28;20033;-75
2023/04/21 01:14:50;;;;;;;40.72;31.42;;;;;;;6.17;100.00;101298.22;5067677;28;20032;-72
2023/04/21 01:17:17;;;;;;;40.70;32.03;;;;;;;6.17;100.00;101292.97;5064564;28;20088;-79
2023/04/21 01:19:44;;;;;;;39.67;31.30;;;;;;;6.16;100.00;101293.81;5066454;28;20029;-81
2023/04/21 01:22:11;;;;;;;42.33;31.80;;;;;;;6.19;100.00;101292.19;5065818;28;20367;-77
2023/04/21 01:24:44;;;;;;;40.97;31.80;;;;;;;6.22;100.00;101289.63;5065554;28;20053;-79
2023/04/21 01:27:17;;;;;;;41.58;31.60;;;;;;;6.23;100.00;101288.81;5065732;28;20028;-77
2023/04/21 01:29:45;;;;;;;41.38;32.00;;;;;;;6.27;100.00;101279.25;5066429;28;20530;-80
2023/04/21 01:32:13;;;;;;;41.33;31.70;;;;;;;6.26;100.00;101278.38;5065333;28;20032;-77
2023/04/21 01:34:42;;;;;;;41.28;31.92;;;;;;;6.27;100.00;101272.25;5065571;28;20384;-77
2023/04/21 01:37:08;;;;;;;40.55;31.25;;;;;;;6.23;100.00;101273.06;5065763;28;20039;-77
2023/04/21 01:39:40;;;;;;;41.05;31.75;;;;;;;6.23;100.00;101274.75;5064985;28;20037;-77
2023/04/21 01:42:06;;;;;;;40.03;30.50;;;;;;;6.21;100.00;101276.47;5065648;28;20024;-77
2023/04/21 01:44:31;;;;;;;39.97;30.45;;;;;;;6.18;100.00;101273.75;5064335;28;20024;-77
2023/04/21 01:46:57;;;;;;;38.15;28.92;;;;;;;6.20;100.00;101272.06;5067016;28;20033;-78
2023/04/21 01:49:22;;;;;;;40.60;29.35;;;;;;;6.16;100.00;101262.31;5063538;28;20025;-78
2023/04/21 01:51:48;;;;;;;40.17;29.27;;;;;;;6.13;100.00;101252.63;5066435;28;20027;-77
2023/04/21 01:54:13;;;;;;;39.40;29.58;;;;;;;6.13;100.00;101252.63;5064595;28;20021;-77
2023/04/21 01:56:38;;;;;;;40.67;30.23;;;;;;;6.13;100.00;101243.84;5064934;28;20041;-75
2023/04/21 01:59:04;;;;;;;39.78;29.63;;;;;;;6.07;100.00;101249.81;5065945;28;20024;-75
2023/04/21 02:01:29;;;;;;;40.42;29.42;;;;;;;6.08;100.00;101243.72;5063993;28;20036;-75
2023/04/21 02:03:55;;;;;;;40.05;29.73;;;;;;;6.09;100.00;101242.88;5065755;28;20071;-75
2023/04/21 02:06:20;;;;;;;40.75;30.88;;;;;;;6.11;100.00;101243.81;5062804;28;20465;-75
2023/04/21 02:08:45;;;;;;;40.22;30.23;;;;;;;6.04;100.00;101228.72;5065814;28;20037;-73
2023/04/21 02:11:11;;;;;;;40.33;29.65;;;;;;;6.10;100.00;101213.13;5064489;28;20021;-74
2023/04/21 02:13:36;;;;;;;39.97;29.38;;;;;;;6.09;100.00;101229.75;5064644;28;20035;-74
2023/04/21 02:16:02;;;;;;;39.38;28.95;;;;;;;6.05;100.00;101226.13;5065605;28;20104;-76
2023/04/21 02:18:28;;;;;;;39.45;29.27;;;;;;;6.05;100.00;101226.13;5062893;28;20045;-72
2023/04/21 02:20:55;;;;;;;38.08;28.33;;;;;;;6.03;100.00;101224.31;5066564;28;20037;-76
2023/04/21 02:23:20;;;;;;;38.88;28.63;;;;;;;6.00;100.00;101227.75;5063072;28;20115;-74
2023/04/21 02:25:45;;;;;;;39.83;29.20;;;;;;;5.99;100.00;101230.34;5065397;28;20155;-73
2023/04/21 02:28:10;;;;;;;40.55;29.67;;;;;;;5.94;100.00;101219.66;5064380;28;20033;-74
2023/04/21 02:30:36;;;;;;;39.47;29.08;;;;;;;5.92;100.00;101214.34;5064036;28;20033;-74
2023/04/21 02:33:01;;;;;;;41.03;30.60;;;;;;;5.93;100.00;101215.25;5064220;28;20025;-75
2023/04/21 02:35:27;;;;;;;41.03;29.50;;;;;;;5.97;100.00;101210.97;5062935;28;20033;-73
2023/04/21 02:37:52;;;;;;;41.10;30.40;;;;;;;5.94;100.00;101211.78;5066325;28;20033;-76
2023/04/21 02:40:17;;;;;;;41.40;30.80;;;;;;;5.95;100.00;101210.94;5063228;28;20033;-73
2023/04/21 02:42:43;;;;;;;42.00;30.80;;;;;;;6.00;100.00;101218.97;5064868;28;20029;-74
2023/04/21 02:45:10;;;;;;;43.45;31.85;;;;;;;6.00;100.00;101212.00;5064219;28;20035;-72
2023/04/21 02:47:35;;;;;;;42.65;31.15;;;;;;;6.01;100.00;101212.88;5063758;28;20071;-74
2023/04/21 02:50:00;;;;;;;42.97;31.52;;;;;;;6.03;100.00;101211.19;5065228;28;20452;-77
2023/04/21 02:52:26;;;;;;;43.67;31.55;;;;;;;5.98;100.00;101216.31;5062328;28;20033;-77
2023/04/21 02:54:52;;;;;;;44.63;32.63;;;;;;;5.97;100.00;101218.84;5065945;28;20387;-76
2023/04/21 02:57:17;;;;;;;43.67;31.27;;;;;;;5.97;100.00;101213.59;5062695;28;20033;-76
2023/04/21 02:59:42;;;;;;;44.05;31.55;;;;;;;5.94;100.00;101212.69;5064373;28;20465;-73
2023/04/21 03:02:08;;;;;;;45.75;32.50;;;;;;;5.93;100.00;101205.66;5064162;28;20032;-72
2023/04/21 03:04:33;;;;;;;44.78;33.00;;;;;;;5.93;100.00;101207.38;5062916;28;20530;-71
2023/04/21 03:06:58;;;;;;;44.85;32.42;;;;;;;5.86;100.00;101208.06;5065269;28;20091;-75
2023/04/21 03:09:24;;;;;;;44.53;32.33;;;;;;;5.73;100.00;101207.66;5062419;28;20036;-74
2023/04/21 03:11:49;;;;;;;46.33;32.72;;;;;;;5.61;100.00;101209.94;5063766;28;20157;-76
2023/04/21 03:14:15;;;;;;;45.13;32.97;;;;;;;5.52;100.00;101207.94;5063079;28;20056;-75
2023/04/21 03:16:40;;;;;;;45.55;33.55;;;;;;;5.43;100.00;101217.22;5062591;28;20060;-75
2023/04/21 03:19:05;;;;;;;47.50;33.90;;;;;;;5.34;100.00;101210.84;5064292;28;20035;-82
2023/04/21 03:21:31;;;;;;;47.80;34.53;;;;;;;5.27;100.00;101208.91;5062384;28;20056;-79
2023/04/21 03:23:56;;;;;;;48.67;35.03;;;;;;;5.21;100.00;101213.94;5065170;28;20059;-79
2023/04/21 03:26:21;;;;;;;50.20;35.47;;;;;;;5.23;100.00;101212.25;5060425;28;20071;-78
2023/04/21 03:28:47;;;;;;;50.72;34.78;;;;;;;5.24;100.00;101212.31;5064690;28;20024;-76
2023/04/21 03:31:12;;;;;;;51.13;35.80;;;;;;;5.20;100.00;101213.03;5063692;28;20021;-77
2023/04/21 03:33:38;;;;;;;51.03;36.22;;;;;;;5.20;100.00;101209.53;5063698;28;20086;-76
2023/04/21 03:36:03;;;;;;;50.38;35.25;;;;;;;5.18;100.00;101212.09;5062812;28;20021;-77
2023/04/21 03:38:29;;;;;;;52.13;36.88;;;;;;;5.21;100.00;101206.97;5064692;28;20120;-82
2023/04/21 03:40:54;;;;;;;50.75;35.55;;;;;;;5.14;100.00;101199.75;5061377;28;20036;-76
2023/04/21 03:43:19;;;;;;;53.15;37.30;;;;;;;5.10;100.00;101197.88;5063475;28;20124;-76
2023/04/21 03:45:45;;;;;;;54.70;38.13;;;;;;;5.03;100.00;101195.88;5062261;28;20098;-78
2023/04/21 03:48:10;;;;;;;53.17;37.42;;;;;;;5.01;100.00;101205.41;5063230;28;20168;-78
2023/04/21 03:50:37;;;;;;;54.92;37.80;;;;;;;4.97;100.00;101199.19;5063792;28;20032;-76
2023/04/21 03:53:02;;;;;;;55.67;38.33;;;;;;;4.97;100.00;101200.94;5061822;28;20060;-81
2023/04/21 03:55:28;;;;;;;55.15;37.65;;;;;;;4.93;100.00;101210.41;5064696;28;20483;-77
2023/04/21 03:57:53;;;;;;;55.08;37.85;;;;;;;4.92;100.00;101207.75;5061000;28;20119;-79
2023/04/21 04:00:19;;;;;;;55.65;38.28;;;;;;;4.93;100.00;101209.53;5063914;28;20028;-78
2023/04/21 04:02:45;;;;;;;56.45;39.10;;;;;;;5.00;100.00;101211.50;5062340;28;20024;-77
2023/04/21 04:05:10;;;;;;;61.03;41.15;;;;;;;5.08;100.00;101204.78;5062725;28;20032;-75
2023/04/21 04:07:41;;;;;;;60.92;40.08;;;;;;;5.12;100.00;101211.91;5063366;28;20029;-75
2023/04/21 04:10:06;;;;;;;58.78;40.08;;;;;;;5.17;100.00;101212.94;5059937;28;20052;-74
2023/04/21 04:12:31;;;;;;;60.42;40.63;;;;;;;5.22;100.00;101207.84;5061473;28;20064;-76
2023/04/21 04:14:57;;;;;;;56.55;39.00;;;;;;;5.32;100.00;101215.16;5064436;28;20060;-75
2023/04/21 04:17:22;;;;;;;59.58;41.17;;;;;;;5.37;100.00;101210.06;5060830;28;20060;-75
2023/04/21 04:19:47;;;;;;;59.03;40.33;;;;;;;5.44;100.00;101209.41;5063838;28;20024;-75
2023/04/21 04:22:13;;;;;;;57.97;40.05;;;;;;;5.47;100.00;101206.88;5062074;28;20442;-75
2023/04/21 04:24:38;;;;;;;53.42;37.53;;;;;;;5.49;100.00;101201.69;5062763;28;20423;-74
2023/04/21 04:27:04;;;;;;;58.42;39.55;;;;;;;5.53;100.00;101209.72;5045394;28;20047;-75
2023/04/21 04:29:30;;;;;;;62.65;42.78;;;;;;;5.54;100.00;101206.22;5061065;28;20083;-77
2023/04/21 04:31:56;;;;;;;57.80;39.22;;;;;;;5.54;100.00;101206.22;5064369;28;20383;-75
2023/04/21 04:34:22;;;;;;;58.70;40.05;;;;;;;5.55;100.00;101202.78;5060854;28;20116;-75
2023/04/21 04:36:49;;;;;;;58.55;40.78;;;;;;;5.57;100.00;101206.31;5063351;28;20040;-75
2023/04/21 04:39:15;;;;;;;59.83;41.10;;;;;;;5.62;100.00;101200.31;5062094;28;20465;-76
2023/04/21 04:41:40;;;;;;;62.90;42.67;;;;;;;5.63;100.00;101205.63;5062353;28;20117;-75
2023/04/21 04:44:06;;;;;;;60.80;42.35;;;;;;;5.66;100.00;101210.06;5062968;28;20115;-75
2023/04/21 04:46:32;;;;;;;61.78;43.20;;;;;;;5.67;100.00;101206.63;5061271;28;20025;-75
2023/04/21 04:48:58;;;;;;;61.40;42.20;;;;;;;5.73;100.00;101219.91;5064200;28;20112;-75
2023/04/21 04:51:23;;;;;;;64.13;43.03;;;;;;;5.76;100.00;101213.00;5056748;28;20033;-74
2023/04/21 04:53:48;;;;;;;63.90;43.15;;;;;;;5.80;100.00;101214.00;5063447;28;20025;-75
2023/04/21 04:56:14;;;;;;;61.97;43.47;;;;;;;5.79;100.00;101211.34;5061795;28;20066;-76
2023/04/21 04:58:39;;;;;;;66.22;44.42;;;;;;;5.78;100.00;101215.69;5062459;28;20021;-75
2023/04/21 05:01:17;;;;;;;62.03;42.88;;;;;;;5.83;100.00;101210.59;5063965;28;20024;-77
2023/04/21 05:03:44;;;;;;;62.33;43.10;;;;;;;5.84;100.00;101221.13;5062016;28;20033;-75
2023/04/21 05:06:09;;;;;;;65.95;44.75;;;;;;;5.86;100.00;101213.31;5060763;28;20367;-75
2023/04/21 05:08:35;;;;;;;64.30;43.70;;;;;;;5.87;100.00;101215.97;5060507;28;20025;-76
2023/04/21 05:11:01;;;;;;;65.30;44.22;;;;;;;5.89;100.00;101203.78;5063659;28;20498;-75
2023/04/21 05:13:27;;;;;;;65.45;43.80;;;;;;;5.92;100.00;101216.97;5060533;28;20106;-76
2023/04/21 05:16:02;;;;;;;68.15;45.30;;;;;;;5.96;100.00;101217.09;5064974;28;20028;-75
2023/04/21 05:18:27;;;;;;;67.68;45.35;;;;;;;5.98;100.00;101218.06;5056994;28;20044;-75
2023/04/21 05:20:53;;;;;;;72.00;46.47;;;;;;;6.01;100.00;101221.63;5063699;28;20107;-76
2023/04/21 05:23:19;;;;;;;64.88;43.60;;;;;;;6.07;100.00;101218.31;5061069;28;20033;-73
2023/04/21 05:25:44;;;;;;;64.55;44.60;;;;;;;6.11;100.00;101226.31;5062463;28;20036;-75
2023/04/21 05:28:10;;;;;;;68.13;46.17;;;;;;;6.20;100.00;101230.94;5062094;28;20090;-72
2023/04/21 05:30:35;;;;;;;64.30;44.55;;;;;;;6.27;100.00;101230.25;5061233;28;20431;-74
2023/04/21 05:33:01;;;;;;;66.85;45.17;;;;;;;6.30;100.00;101228.59;5061961;28;20089;-77
2023/04/21 05:35:29;;;;;;;67.13;45.33;;;;;;;6.40;100.00;101243.75;5060208;28;20060;-72
2023/04/21 05:37:55;;;;;;;65.32;46.20;;;;;;;6.46;100.00;101241.28;5056413;28;20134;-73
2023/04/21 05:40:21;;;;;;;65.63;45.80;;;;;;;6.44;100.00;101245.63;5064510;28;20046;-74
2023/04/21 05:42:46;;;;;;;66.15;45.55;;;;;;;6.47;100.00;101240.44;5064925;28;20064;-73
2023/04/21 05:45:11;;;;;;;66.38;46.42;;;;;;;6.54;100.00;101242.38;5064758;28;20091;-76
2023/04/21 05:47:37;;;;;;;67.03;45.80;;;;;;;6.45;100.00;101228.97;5056691;28;20086;-85
2023/04/21 05:50:04;;;;;;;66.82;46.10;;;;;;;6.38;100.00;101234.94;5061313;28;20468;-79
2023/04/21 05:52:29;;;;;;;66.30;45.47;;;;;;;6.36;100.00;101239.25;5066914;28;20028;-80
2023/04/21 05:54:54;;;;;;;63.53;45.15;;;;;;;6.32;100.00;101232.13;5066994;28;20020;-74
2023/04/21 05:57:20;;;;;;;66.10;45.25;;;;;;;6.33;100.00;101236.53;5063989;28;20079;-74
2023/04/21 05:59:45;;;;;;;66.68;46.95;;;;;;;6.33;100.00;101241.78;5062799;28;20112;-78
2023/04/21 06:02:10;;;;;;;65.80;45.95;;;;;;;6.31;100.00;101233.88;5060664;28;20365;-80
2023/04/21 06:04:36;;;;;;;62.75;43.90;;;;;;;6.33;100.00;101236.53;5068055;28;20033;-83
2023/04/21 06:07:09;;;;;;;63.35;44.13;;;;;;;6.35;100.00;101234.84;5062147;28;20029;-73
2023/04/21 06:09:35;;;;;;;66.35;45.50;;;;;;;6.42;100.00;101228.91;5064675;28;20507;-81
2023/04/21 06:12:03;;;;;;;61.63;43.40;;;;;;;6.56;100.00;101238.06;5059501;28;20044;-75
2023/04/21 06:14:29;;;;;;;63.45;45.20;;;;;;;6.62;100.00;101240.84;5063786;28;20013;-79
2023/04/21 06:16:54;;;;;;;62.08;43.35;;;;;;;6.70;100.00;101233.19;5063255;28;20466;-79
2023/04/21 06:19:20;;;;;;;59.10;42.90;;;;;;;6.78;100.00;101223.75;5066583;28;20036;-79
2023/04/21 06:21:45;;;;;;;61.95;44.50;;;;;;;6.87;100.00;101235.34;5061869;28;20029;-78
2023/04/21 06:24:11;;;;;;;59.63;43.20;;;;;;;6.98;100.00;101224.25;5064235;28;20104;-76
2023/04/21 06:26:36;;;;;;;60.72;43.72;;;;;;;6.98;100.00;101228.63;5061926;28;20045;-77
2023/04/21 06:29:01;;;;;;;60.95;43.45;;;;;;;6.98;100.00;101223.38;5065867;28;20025;-75
2023/04/21 06:31:27;;;;;;;56.22;42.08;;;;;;;6.96;100.00;101231.22;5068310;28;20042;-78
2023/04/21 06:33:52;;;;;;;58.72;43.08;;;;;;;7.04;100.00;101230.53;5065472;28;20488;-80
2023/04/21 06:36:17;;;;;;;55.85;42.15;;;;;;;7.13;100.00;101236.00;5065056;28;20404;-79
2023/04/21 06:38:43;;;;;;;57.92;43.20;;;;;;;7.20;100.00;101237.94;5061888;28;20039;-76
2023/04/21 06:41:09;;;;;;;57.13;41.85;;;;;;;7.22;100.00;101233.59;5065852;28;20020;-80
2023/04/21 06:43:34;;;;;;;55.30;40.85;;;;;;;7.27;100.00;101237.22;5064769;28;20059;-74
2023/04/21 06:46:00;;;;;;;56.13;40.97;;;;;;;7.39;100.00;101241.03;5065660;28;20048;-72
2023/04/21 06:48:26;;;;;;;56.15;41.83;;;;;;;7.57;100.00;101238.81;5062235;28;20032;-76
2023/04/21 06:50:52;;;;;;;55.53;41.17;;;;;;;7.74;100.00;101227.78;5064400;28;20017;-76
2023/04/21 06:53:17;;;;;;;53.47;40.75;;;;;;;7.78;100.00;101219.09;5065903;28;20089;-74
2023/04/21 06:55:43;;;;;;;54.05;40.97;;;;;;;7.98;100.00;101224.75;5055825;28;20040;-77
2023/04/21 06:58:08;;;;;;;51.35;39.83;;;;;;;7.98;100.00;101233.56;5066051;28;20020;-73
2023/04/21 07:00:34;;;;;;;50.53;38.60;;;;;;;7.98;100.00;101228.31;5066471;28;20073;-81
2023/04/21 07:02:59;;;;;;;51.58;39.10;;;;;;;8.05;100.00;101233.69;5059976;28;20071;-75
2023/04/21 07:05:25;;;;;;;50.80;39.13;;;;;;;8.18;100.00;101233.09;5064173;28;20025;-78
2023/04/21 07:07:50;;;;;;;49.80;38.85;;;;;;;8.32;100.00;101215.81;5058986;28;20033;-79
2023/04/21 07:10:18;;;;;;;48.95;37.53;;;;;;;8.44;100.00;101216.91;5065330;28;20380;-75
2023/04/21 07:12:44;;;;;;;48.35;37.95;;;;;;;8.58;100.00;101215.47;5068119;28;20472;-76
2023/04/21 07:15:11;;;;;;;45.97;35.90;;;;;;;8.59;100.00;101222.53;5061646;28;20456;-76
2023/04/21 07:17:36;;;;;;;43.63;34.35;;;;;;;8.72;100.00;101216.59;5067320;28;20182;-81
2023/04/21 07:20:02;;;;;;;45.80;35.75;;;;;;;8.99;100.00;101219.69;5055611;28;20028;-75
2023/04/21 07:22:27;;;;;;;45.15;35.75;;;;;;;9.04;100.00;101229.47;5062277;28;20373;-72
2023/04/21 07:24:52;;;;;;;41.08;31.95;;;;;;;9.00;100.00;101224.09;5066448;28;20024;-74
2023/04/21 07:27:18;;;;;;;42.47;33.55;;;;;;;8.90;100.00;101223.06;5059845;28;20086;-72
2023/04/21 07:29:43;;;;;;;44.03;34.58;;;;;;;8.91;100.00;101219.53;5064538;28;20024;-73
2023/04/21 07:32:09;;;;;;;42.70;33.35;;;;;;;8.87;100.00;101221.25;5063490;28;20426;-73
2023/04/21 07:34:34;;;;;;;40.65;32.00;;;;;;;8.87;100.00;101213.34;5060504;28;20432;-74
2023/04/21 07:37:00;;;;;;;40.83;32.38;;;;;;;8.86;100.00;101210.69;5062952;28;20115;-75
2023/04/21 07:39:25;;;;;;;40.85;31.13;;;;;;;8.87;100.00;101202.78;5060581;28;20029;-76
2023/04/21 07:41:50;;;;;;;41.38;31.27;;;;;;;8.93;100.00;101215.19;5062257;28;20029;-72
2023/04/21 07:44:16;;;;;;;39.33;30.85;;;;;;;8.88;100.00;101215.13;5064663;28;20021;-71
2023/04/21 07:46:41;;;;;;;40.75;31.63;;;;;;;8.97;100.00;101211.75;5063200;28;20111;-73
2023/04/21 07:49:07;;;;;;;38.78;29.42;;;;;;;8.94;100.00;101203.81;5060506;28;20035;-70
2023/04/21 07:51:32;;;;;;;38.30;29.42;;;;;;;8.95;100.00;101205.56;5064762;28;20025;-72
2023/04/21 07:53:57;;;;;;;39.83;30.50;;;;;;;9.10;100.00;101199.66;5064125;28;20082;-73
2023/04/21 07:56:23;;;;;;;37.58;28.73;;;;;;;9.05;100.00;101206.59;5062843;28;20037;-70
2023/04/21 07:58:48;;;;;;;37.55;28.15;;;;;;;9.12;100.00;101204.97;5063129;28;20041;-73
2023/04/21 08:01:14;;;;;;;36.28;27.02;;;;;;;9.18;100.00;101203.28;5062577;28;20431;-70
2023/04/21 08:03:39;;;;;;;35.28;26.95;;;;;;;9.31;100.00;101212.28;5061931;28;20028;-70
2023/04/21 08:06:06;;;;;;;35.35;25.75;;;;;;;9.58;100.00;101208.28;5064457;28;20029;-70
2023/04/21 08:08:31;;;;;;;34.33;25.42;;;;;;;9.81;100.00;101199.78;5064295;28;20057;-72
2023/04/21 08:10:56;;;;;;;33.78;25.67;;;;;;;9.80;100.00;101195.38;5062156;28;20048;-73
2023/04/21 08:13:24;;;;;;;34.65;25.98;;;;;;;10.20;100.00;101203.81;5064464;28;20025;-74
2023/04/21 08:15:53;;;;;;;34.88;25.73;;;;;;;10.69;100.00;101193.78;5063327;28;20036;-72
2023/04/21 08:18:19;;;;;;;32.80;23.65;;;;;;;11.07;100.00;101200.28;5061634;28;20052;-73
2023/04/21 08:20:46;;;;;;;30.27;21.30;;;;;;;11.34;100.00;101186.34;5064515;28;20067;-75
2023/04/21 08:23:15;;;;;;;30.05;21.50;;;;;;;11.44;100.00;101200.53;5065051;28;20040;-74
2023/04/21 08:25:40;;;;;;;28.67;20.17;;;;;;;11.78;100.00;101191.03;5061268;28;20024;-72
2023/04/21 08:28:06;;;;;;;28.70;19.52;;;;;;;12.08;100.00;101185.88;5061161;28;20029;-74
2023/04/21 08:30:31;;;;;;;29.13;20.13;;;;;;;12.18;100.00;101196.50;5058227;28;20029;-75
2023/04/21 08:32:56;;;;;;;28.38;20.05;;;;;;;12.24;100.00;101190.34;5064047;28;20066;-73
2023/04/21 08:35:22;;;;;;;27.52;18.25;;;;;;;12.45;100.00;101193.94;5061003;28;20032;-74
2023/04/21 08:37:47;;;;;;;28.30;19.27;;;;;;;12.95;100.00;101192.25;5062941;28;20079;-74
2023/04/21 08:40:13;;;;;;;27.38;18.67;;;;;;;13.28;100.00;101198.41;5092304;28;20028;-74
2023/04/21 08:42:38;;;;;;;27.58;18.95;;;;;;;13.78;100.00;101198.31;5063656;28;20100;-74
2023/04/21 08:45:05;;;;;;;27.25;18.45;;;;;;;13.94;87.55;101180.53;5066612;28;20036;-74
2023/04/21 08:47:31;;;;;;;28.75;19.38;;;;;;;13.88;89.01;101195.66;5062121;28;20387;-75
2023/04/21 08:49:58;;;;;;;28.17;18.77;;;;;;;13.88;90.29;101179.69;5064393;28;20040;-75
2023/04/21 08:52:23;;;;;;;26.30;17.15;;;;;;;14.14;82.38;101182.25;5063216;28;20532;-74
2023/04/21 08:54:51;;;;;;;26.38;17.42;;;;;;;13.89;84.69;101182.34;5061798;28;20115;-73
2023/04/21 08:57:17;;;;;;;26.23;16.77;;;;;;;14.43;81.33;101181.16;5060891;28;20033;-72
2023/04/21 08:59:44;;;;;;;24.98;16.05;;;;;;;14.58;74.25;101185.53;5064023;28;20032;-75
2023/04/21 09:02:17;;;;;;;24.75;15.30;;;;;;;14.15;74.29;101183.13;5060725;28;20029;-72
2023/04/21 09:04:50;;;;;;;26.52;16.75;;;;;;;14.04;74.57;101180.53;5056441;28;20061;-72
2023/04/21 09:07:40;;;;;;;25.90;16.95;;;;;;;14.40;79.79;101175.88;5056848;28;20029;-72
2023/04/21 09:10:06;;;;;;;24.50;15.60;;;;;;;15.14;73.87;101178.00;5062194;28;20100;-74
2023/04/21 09:12:31;;;;;;;25.67;16.27;;;;;;;15.32;71.82;101172.50;5060746;28;20547;-75
2023/04/21 09:14:57;;;;;;;25.77;17.00;;;;;;;15.28;76.26;101169.91;5062469;28;20025;-75
2023/04/21 09:17:31;;;;;;;25.65;16.75;;;;;;;14.85;75.25;101176.47;5065159;28;20395;-75
2023/04/21 09:19:57;;;;;;;25.92;17.25;;;;;;;14.37;77.54;101166.16;5065647;28;20510;-75
2023/04/21 09:22:26;;;;;;;26.10;17.15;;;;;;;14.57;79.89;101175.78;5066690;28;20029;-75
2023/04/21 09:24:58;;;;;;;24.70;15.85;;;;;;;15.30;76.48;101163.66;5064903;28;20021;-75
2023/04/21 09:27:24;;;;;;;25.25;15.90;;;;;;;16.29;68.56;101154.47;5066440;28;20047;-76
2023/04/21 09:29:49;;;;;;;24.85;15.10;;;;;;;17.37;64.11;101160.75;5064234;28;20484;-75
2023/04/21 09:32:18;;;;;;;25.20;15.30;;;;;;;17.47;59.64;101171.25;5067350;28;20032;-77
2023/04/21 09:34:45;;;;;;;23.38;13.63;;;;;;;17.37;56.70;101166.09;5059878;28;20029;-74
2023/04/21 09:37:12;;;;;;;23.60;13.82;;;;;;;17.75;56.91;101177.81;5067022;28;20472;-76
2023/04/21 09:39:37;;;;;;;23.50;13.85;;;;;;;17.78;56.21;101164.38;5063345;28;20388;-76
2023/04/21 09:42:03;;;;;;;23.52;13.77;;;;;;;16.84;57.66;101162.53;5066004;28;20115;-76
2023/04/21 09:44:28;;;;;;;23.80;13.40;;;;;;;16.30;60.05;101153.56;5065675;28;20106;-75
2023/04/21 09:47:03;;;;;;;23.73;13.93;;;;;;;16.06;60.96;101160.13;5064346;28;20021;-76
2023/04/21 09:49:30;;;;;;;23.98;14.73;;;;;;;15.91;63.91;101157.66;5065570;28;20441;-72
2023/04/21 09:52:00;;;;;;;24.38;13.45;;;;;;;15.69;62.60;101157.91;5064926;28;20029;-73
2023/04/21 09:54:32;;;;;;;23.88;13.65;;;;;;;15.44;65.57;101162.63;5065749;28;20030;-72
2023/04/21 09:57:03;;;;;;;23.27;13.57;;;;;;;16.48;61.82;101162.22;5064716;28;20498;-75
2023/04/21 09:59:34;;;;;;;22.92;12.70;;;;;;;16.64;62.49;101147.72;5065716;28;20375;-75
2023/04/21 10:02:03;;;;;;;23.30;13.65;;;;;;;16.96;59.31;101146.31;5065273;28;20029;-76
2023/04/21 10:04:30;;;;;;;24.23;14.70;;;;;;;16.67;58.67;101154.78;5065107;28;20414;-75
2023/04/21 10:06:57;;;;;;;26.10;16.45;;;;;;;16.21;62.45;101153.72;5064436;28;20051;-72
2023/04/21 10:09:26;;;;;;;24.15;15.15;;;;;;;15.95;62.91;101141.59;5066169;28;20120;-75
2023/04/21 10:11:52;;;;;;;24.67;15.32;;;;;;;16.11;61.11;101141.41;5063651;28;20021;-75
2023/04/21 10:14:18;;;;;;;24.00;14.25;;;;;;;18.14;58.67;101141.38;5066508;28;20027;-76
2023/04/21 10:16:55;;;;;;;24.20;15.20;;;;;;;18.12;56.33;101123.56;5063053;28;20061;-76
2023/04/21 10:19:26;;;;;;;24.70;15.45;;;;;;;16.98;57.29;101135.63;5060703;28;20029;-74
2023/04/21 10:21:54;;;;;;;24.25;15.00;;;;;;;18.34;54.77;101131.09;5065797;28;20032;-73
2023/04/21 10:24:20;;;;;;;24.20;14.73;;;;;;;17.77;54.70;101127.00;5063144;28;20029;-72
2023/04/21 10:26:45;;;;;;;25.17;14.35;;;;;;;17.25;56.05;101134.25;5062288;28;20426;-69
2023/04/21 10:29:11;;;;;;;23.85;13.93;;;;;;;17.90;54.09;101127.66;5066395;28;20037;-76
2023/04/21 10:31:36;;;;;;;23.15;13.88;;;;;;;17.90;52.68;101119.63;5063373;28;20040;-80
2023/04/21 10:34:07;;;;;;;23.13;13.95;;;;;;;18.41;52.55;101123.81;5065063;28;20033;-75
2023/04/21 10:36:49;;;;;;;23.77;14.68;;;;;;;19.59;50.23;101114.50;5066748;28;20045;-76
2023/04/21 10:39:35;;;;;;;23.08;14.13;;;;;;;21.06;50.22;101107.19;5060238;28;20086;-75
2023/04/21 10:42:12;;;;;;;23.40;13.48;;;;;;;21.89;46.67;101106.84;5063195;28;20067;-79
2023/04/21 10:45:10;;;;;;;22.10;11.88;;;;;;;23.17;43.63;101102.53;5062505;28;20037;-76
2023/04/21 10:47:54;;;;;;;22.60;12.65;;;;;;;21.07;44.93;101107.16;5024477;28;20128;-78
2023/04/21 10:50:22;;;;;;;22.63;12.68;;;;;;;19.72;47.29;101096.25;5064672;28;20033;-79
2023/04/21 10:52:50;;;;;;;24.15;13.18;;;;;;;19.06;48.82;101090.06;5063095;28;20078;-83
2023/04/21 10:55:15;;;;;;;22.50;12.85;;;;;;;19.76;46.30;101087.19;5056955;28;20060;-80
2023/04/21 10:57:44;;;;;;;23.50;13.60;;;;;;;18.74;49.99;101089.09;5060521;28;20067;-79
2023/04/21 11:00:11;;;;;;;23.52;14.00;;;;;;;20.02;49.24;101085.53;5064059;28;20021;-76
2023/04/21 11:02:36;;;;;;;22.38;12.68;;;;;;;21.04;47.46;101093.81;5062514;28;20028;-79
2023/04/21 11:05:02;;;;;;;22.92;12.93;;;;;;;21.59;42.98;101080.16;5066204;28;20476;-77
2023/04/21 11:07:27;;;;;;;22.17;11.88;;;;;;;21.03;43.80;101089.38;5068205;28;20032;-79